Time;durP1;ratioP1;P1;durP2;ratioP2;P2;SDS_P1;SDS_P2;PMS_P1;PMS_P2;Temp;Humidity;BMP_temperature;BMP_pressure;BME280_temperature;BME280_humidity;BME280_pressure;Samples;Min_cycle;Max_cycle;Signal;HPM_P1;HPM_P2
2023/08/10 00:00:12;;;;;;;;;;;;;;;20.84;65.55;99557.47;344901;28;1283;-78
2023/08/10 00:00:25;;;;;;;;;;;;;;;20.85;65.46;99558.31;339354;29;2474;-78
2023/08/10 00:00:36;;;;;;;;;;;;;;;20.87;65.03;99561.69;342121;28;4384;-78
2023/08/10 00:00:46;;;;;;;;;;;;;;;20.85;65.72;99561.81;342028;28;1249;-78
2023/08/10 00:00:58;;;;;;;;;;;;;;;20.80;66.11;99549.88;343695;28;2844;-78
2023/08/10 00:01:09;;;;;;;;;;;;;;;20.75;66.17;99558.28;342194;28;853;-78
2023/08/10 00:01:19;;;;;;;;;;;;;;;20.75;66.39;99558.28;342017;28;1195;-78
2023/08/10 00:01:29;;;;;;;;;;;;;;;20.76;66.21;99559.97;339062;29;1594;-78
2023/08/10 00:01:40;;;;;;;;;;;;;;;20.79;66.36;99558.88;334356;29;1346;-78
2023/08/10 00:01:50;;;;;;;;;;;;;;;20.82;66.26;99564.75;336749;29;1335;-78
2023/08/10 00:02:01;;;;;;;;;;;;;;;20.83;65.57;99554.94;337330;29;1223;-78
2023/08/10 00:02:12;;;;;;;;;;;;;;;20.86;65.47;99565.31;335949;29;1351;-78
2023/08/10 00:02:23;;;;;;;;;;;;;;;20.86;65.81;99560.00;336791;29;1282;-78
2023/08/10 00:02:33;;;;;;;;;;;;;;;20.83;66.06;99566.44;335448;29;1439;-78
2023/08/10 00:02:44;;;;;;;;;;;;;;;20.80;65.71;99561.38;333234;29;1407;-78
2023/08/10 00:02:54;;;;;;;;;;;;;;;20.77;66.04;99556.34;336970;29;1356;-78
2023/08/10 00:03:04;;;;;;;;;;;;;;;20.73;65.74;99559.38;338290;29;1992;-78
2023/08/10 00:03:14;;;;;;;;;;;;;;;20.69;65.66;99558.78;334293;29;2031;-79
2023/08/10 00:03:25;;;;;;;;;;;;;;;20.67;66.26;99560.72;331804;29;1277;-79
2023/08/10 00:03:35;;;;;;;;;;;;;;;20.68;65.88;99559.75;330642;29;2166;-79
2023/08/10 00:03:45;;;;;;;;;;;;;;;20.70;66.19;99563.13;329495;29;2252;-79
2023/08/10 00:03:55;;;;;;;;;;;;;;;20.71;66.07;99559.50;334496;29;855;-79
2023/08/10 00:04:06;;;;;;;;;;;;;;;20.73;65.92;99554.91;332989;29;1677;-79
2023/08/10 00:04:16;;;;;;;;;;;;;;;20.75;65.68;99563.59;331634;29;1217;-79
2023/08/10 00:04:26;;;;;;;;;;;;;;;20.77;66.04;99561.66;329340;29;1389;-79
2023/08/10 00:04:36;;;;;;;;;;;;;;;20.80;65.52;99555.19;330544;29;1102;-79
2023/08/10 00:04:47;;;;;;;;;;;;;;;20.81;65.41;99559.53;331351;29;1887;-79
2023/08/10 00:04:57;;;;;;;;;;;;;;;20.81;65.28;99563.06;331805;29;858;-79
2023/08/10 00:05:07;;;;;;;;;;;;;;;20.83;65.36;99562.91;322068;30;1219;-79
2023/08/10 00:05:17;;;;;;;;;;;;;;;20.83;65.75;99555.78;322284;30;2225;-79
2023/08/10 00:05:29;;;;;;;;;;;;;;;20.83;65.33;99557.59;320318;30;2453;-79
2023/08/10 00:05:39;;;;;;;;;;;;;;;20.84;65.72;99565.44;319825;30;1610;-79
2023/08/10 00:05:49;;;;;;;;;;;;;;;20.85;65.45;99560.97;323236;30;2717;-79
2023/08/10 00:06:00;;;;;;;;;;;;;;;20.86;65.22;99555.53;322831;30;2651;-79
2023/08/10 00:06:10;;;;;;;;;;;;;;;20.88;65.54;99550.09;325175;30;1223;-79
2023/08/10 00:06:21;;;;;;;;;;;;;;;20.90;65.57;99561.44;327937;30;1685;-79
2023/08/10 00:06:31;;;;;;;;;;;;;;;20.91;65.17;99558.66;325458;30;1440;-79
2023/08/10 00:06:41;;;;;;;;;;;;;;;20.94;64.92;99552.22;323351;30;1342;-78
2023/08/10 00:06:51;;;;;;;;;;;;;;;20.97;65.49;99559.09;327727;30;2227;-78
2023/08/10 00:07:02;;;;;;;;;;;;;;;20.97;65.27;99562.63;323647;30;2266;-78
2023/08/10 00:07:12;;;;;;;;;;;;;;;20.90;65.12;99559.63;320739;30;1806;-78
2023/08/10 00:07:22;;;;;;;;;;;;;;;20.89;65.42;99555.28;318527;31;1211;-78
2023/08/10 00:07:34;;;;;;;;;;;;;;;20.87;65.33;99559.88;317632;30;3148;-78
2023/08/10 00:07:45;;;;;;;;;;;;;;;20.83;65.25;99553.13;316424;30;3165;-78
2023/08/10 00:07:55;;;;;;;;;;;;;;;20.82;65.57;99554.09;317614;31;1222;-78
2023/08/10 00:08:05;;;;;;;;;;;;;;;20.80;65.77;99560.53;318823;30;3440;-78
2023/08/10 00:08:15;;;;;;;;;;;;;;;20.76;65.57;99559.97;318162;31;3370;-78
2023/08/10 00:08:26;;;;;;;;;;;;;;;20.75;65.65;99560.94;318686;31;795;-78
2023/08/10 00:08:36;;;;;;;;;;;;;;;20.72;65.86;99558.53;315717;31;2604;-78
2023/08/10 00:08:46;;;;;;;;;;;;;;;20.70;66.06;99560.47;313907;31;2216;-78
2023/08/10 00:08:57;;;;;;;;;;;;;;;20.66;66.23;99552.88;315422;31;1235;-78
2023/08/10 00:09:08;;;;;;;;;;;;;;;20.65;66.18;99557.34;313546;31;3335;-78
2023/08/10 00:09:18;;;;;;;;;;;;;;;20.68;66.23;99551.78;311551;31;3274;-78
2023/08/10 00:09:28;;;;;;;;;;;;;;;20.71;66.33;99556.84;309744;31;4162;-78
2023/08/10 00:09:38;;;;;;;;;;;;;;;20.73;66.17;99564.69;302307;32;2611;-78
2023/08/10 00:09:48;;;;;;;;;;;;;;;20.75;66.32;99552.97;305199;32;4444;-78
2023/08/10 00:09:59;;;;;;;;;;;;;;;20.79;66.15;99558.88;304764;32;4294;-78
2023/08/10 00:10:09;;;;;;;;;;;;;;;20.81;66.01;99567.53;305243;32;2960;-78
2023/08/10 00:10:19;;;;;;;;;;;;;;;20.76;65.75;99554.63;302657;32;4120;-78
2023/08/10 00:10:30;;;;;;;;;;;;;;;20.71;65.77;99556.00;301234;32;4448;-78
2023/08/10 00:10:40;;;;;;;;;;;;;;;20.69;65.86;99558.78;300045;32;1380;-78
2023/08/10 00:10:50;;;;;;;;;;;;;;;20.70;66.23;99560.47;298520;32;3545;-78
2023/08/10 00:11:01;;;;;;;;;;;;;;;20.68;66.38;99561.56;299446;32;3041;-78
2023/08/10 00:11:11;;;;;;;;;;;;;;;20.63;66.09;99553.13;300086;32;1258;-78
2023/08/10 00:11:21;;;;;;;;;;;;;;;20.59;66.70;99561.38;300940;32;4433;-78
2023/08/10 00:11:31;;;;;;;;;;;;;;;20.56;66.85;99563.44;296659;33;5509;-78
2023/08/10 00:11:42;;;;;;;;;;;;;;;20.57;66.54;99557.13;293928;33;1915;-78
2023/08/10 00:11:52;;;;;;;;;;;;;;;20.58;66.56;99551.69;290200;33;5821;-78
2023/08/10 00:12:02;;;;;;;;;;;;;;;20.61;66.57;99555.91;290578;33;6404;-78
2023/08/10 00:12:12;;;;;;;;;;;;;;;20.61;66.49;99555.91;290114;33;6453;-78
2023/08/10 00:12:23;;;;;;;;;;;;;;;20.62;66.19;99552.28;291113;34;1340;-78
2023/08/10 00:12:33;;;;;;;;;;;;;;;20.59;66.40;99553.38;288141;34;5578;-78
2023/08/10 00:12:43;;;;;;;;;;;;;;;20.56;66.83;99558.13;286570;34;6119;-78
2023/08/10 00:12:53;;;;;;;;;;;;;;;20.54;66.62;99558.25;288361;34;864;-78
2023/08/10 00:13:04;;;;;;;;;;;;;;;20.54;66.81;99552.06;286020;34;4861;-78
2023/08/10 00:13:14;;;;;;;;;;;;;;;20.57;66.66;99559.78;285997;34;4780;-78
2023/08/10 00:13:24;;;;;;;;;;;;;;;20.59;66.80;99560.50;284629;34;1321;-78
2023/08/10 00:13:34;;;;;;;;;;;;;;;20.59;66.55;99557.84;281403;34;7490;-79
2023/08/10 00:13:45;;;;;;;;;;;;;;;20.57;66.42;99559.78;280217;34;9380;-79
2023/08/10 00:13:55;;;;;;;;;;;;;;;20.57;66.67;99560.66;282733;35;1381;-78
2023/08/10 00:14:05;;;;;;;;;;;;;;;20.59;66.98;99558.69;280700;35;8910;-78
2023/08/10 00:14:15;;;;;;;;;;;;;;;20.61;66.68;99555.91;280170;34;9851;-79
2023/08/10 00:14:25;;;;;;;;;;;;;;;20.58;66.56;99561.50;279111;35;1244;-79
2023/08/10 00:14:36;;;;;;;;;;;;;;;20.55;66.96;99556.41;274479;35;9923;-79
2023/08/10 00:14:47;;;;;;;;;;;;;;;20.50;67.06;99559.47;274443;35;7668;-79
2023/08/10 00:16:49;;;;;;;;;;;;;;;20.59;66.90;99561.38;2503339;27;19933;-79
2023/08/10 00:17:00;;;;;;;;;;;;;;;20.59;67.09;99557.84;355951;27;1384;-79
2023/08/10 00:17:10;;;;;;;;;;;;;;;20.61;66.65;99555.91;354978;27;1197;-79
2023/08/10 00:17:21;;;;;;;;;;;;;;;20.63;66.90;99553.97;350321;28;1318;-79
2023/08/10 00:17:32;;;;;;;;;;;;;;;20.64;66.75;99555.66;348894;28;1322;-79
2023/08/10 00:17:42;;;;;;;;;;;;;;;20.66;66.64;99556.38;350239;28;1282;-79
2023/08/10 00:17:52;;;;;;;;;;;;;;;20.68;66.48;99561.56;350697;28;1175;-79
2023/08/10 00:18:04;;;;;;;;;;;;;;;20.69;66.52;99561.44;351696;28;1317;-79
2023/08/10 00:18:14;;;;;;;;;;;;;;;20.68;66.64;99556.25;350327;28;778;-79
2023/08/10 00:18:24;;;;;;;;;;;;;;;20.66;66.27;99559.03;350407;28;843;-79
2023/08/10 00:18:35;;;;;;;;;;;;;;;20.65;66.68;99559.16;349098;28;855;-78
2023/08/10 00:18:45;;;;;;;;;;;;;;;20.65;66.66;99562.66;349856;28;1223;-78
2023/08/10 00:18:55;;;;;;;;;;;;;;;20.66;66.51;99560.84;350433;28;1848;-78
2023/08/10 00:19:06;;;;;;;;;;;;;;;20.68;66.42;99561.56;350341;28;2845;-78
2023/08/10 00:19:16;;;;;;;;;;;;;;;20.68;65.98;99559.75;350455;28;2682;-78
2023/08/10 00:19:26;;;;;;;;;;;;;;;20.69;66.48;99558.78;350501;28;2926;-78
2023/08/10 00:19:36;;;;;;;;;;;;;;;20.62;66.24;99562.06;347425;28;2844;-78
2023/08/10 00:19:50;;;;;;;;;;;;;;;20.58;66.84;99566.81;347789;28;884;-78
2023/08/10 00:20:00;;;;;;;;;;;;;;;20.47;67.10;99556.22;347647;28;808;-78
2023/08/10 00:20:10;;;;;;;;;;;;;;;20.45;67.07;99558.16;346048;28;1311;-78
2023/08/10 00:20:21;;;;;;;;;;;;;;;20.48;67.28;99563.22;347518;28;1373;-78
2023/08/10 00:20:31;;;;;;;;;;;;;;;20.48;67.08;99560.56;349077;28;1482;-78
2023/08/10 00:20:41;;;;;;;;;;;;;;;20.46;66.96;99566.00;349239;28;1306;-78
2023/08/10 00:20:51;;;;;;;;;;;;;;;20.47;67.30;99561.53;350139;28;1231;-78
2023/08/10 00:21:02;;;;;;;;;;;;;;;20.49;66.84;99556.94;347969;28;1136;-78
2023/08/10 00:21:12;;;;;;;;;;;;;;;20.49;67.21;99559.59;345506;28;1030;-78
2023/08/10 00:21:23;;;;;;;;;;;;;;;20.50;67.14;99559.47;344816;28;1208;-78
2023/08/10 00:21:33;;;;;;;;;;;;;;;20.48;67.04;99560.56;346128;28;1380;-78
2023/08/10 00:21:43;;;;;;;;;;;;;;;20.49;67.36;99562.25;344957;28;813;-78
2023/08/10 00:21:53;;;;;;;;;;;;;;;20.49;66.95;99564.91;346277;28;1243;-78
2023/08/10 00:22:04;;;;;;;;;;;;;;;20.45;66.91;99561.66;349633;28;1331;-78
2023/08/10 00:22:14;;;;;;;;;;;;;;;20.41;67.34;99559.38;350970;28;1261;-78
2023/08/10 00:22:24;;;;;;;;;;;;;;;20.38;67.25;99560.47;351624;28;1300;-78
2023/08/10 00:22:35;;;;;;;;;;;;;;;20.36;67.31;99561.56;349597;28;1337;-78
2023/08/10 00:22:45;;;;;;;;;;;;;;;20.36;67.48;99562.38;350209;28;1031;-78
2023/08/10 00:22:56;;;;;;;;;;;;;;;20.36;67.58;99566.88;350220;28;965;-78
2023/08/10 00:23:06;;;;;;;;;;;;;;;20.36;67.69;99572.19;348926;28;1374;-78
2023/08/10 00:23:16;;;;;;;;;;;;;;;20.38;67.56;99560.47;347522;28;1330;-78
2023/08/10 00:23:26;;;;;;;;;;;;;;;20.38;67.36;99560.47;346554;28;1233;-78
2023/08/10 00:23:37;;;;;;;;;;;;;;;20.41;67.32;99559.38;349025;28;1199;-78
2023/08/10 00:23:47;;;;;;;;;;;;;;;20.43;67.52;99568.06;348860;28;945;-78
2023/08/10 00:23:57;;;;;;;;;;;;;;;20.44;67.65;99573.25;348456;28;1309;-78
2023/08/10 00:24:08;;;;;;;;;;;;;;;20.42;67.20;99567.22;346028;28;1206;-79
2023/08/10 00:24:18;;;;;;;;;;;;;;;20.43;67.49;99563.59;344762;28;1216;-79
2023/08/10 00:24:28;;;;;;;;;;;;;;;20.45;67.67;99560.81;343820;28;1212;-79
2023/08/10 00:24:38;;;;;;;;;;;;;;;20.47;67.36;99569.50;343845;28;1336;-79
2023/08/10 00:24:49;;;;;;;;;;;;;;;20.49;67.14;99572.88;341025;29;805;-79
2023/08/10 00:24:59;;;;;;;;;;;;;;;20.51;67.33;99566.47;340097;29;1498;-79
2023/08/10 00:25:09;;;;;;;;;;;;;;;20.51;67.25;99576.25;339077;29;1289;-79
2023/08/10 00:25:19;;;;;;;;;;;;;;;20.52;66.99;99573.47;336798;29;1336;-79
2023/08/10 00:25:30;;;;;;;;;;;;;;;20.53;66.91;99569.84;335371;29;1686;-79
2023/08/10 00:25:40;;;;;;;;;;;;;;;20.53;66.98;99569.00;336198;29;1512;-79
2023/08/10 00:25:50;;;;;;;;;;;;;;;20.55;66.95;99572.38;338090;29;1313;-79
2023/08/10 00:26:00;;;;;;;;;;;;;;;20.55;67.12;99570.56;339139;29;1219;-79
2023/08/10 00:26:10;;;;;;;;;;;;;;;20.56;67.31;99574.06;339513;29;1247;-79
2023/08/10 00:26:21;;;;;;;;;;;;;;;20.58;67.29;99578.28;338245;29;1267;-79
2023/08/10 00:26:31;;;;;;;;;;;;;;;20.58;66.88;99577.44;336058;29;1072;-79
2023/08/10 00:26:42;;;;;;;;;;;;;;;20.56;66.70;99574.06;337460;29;1405;-79
2023/08/10 00:26:52;;;;;;;;;;;;;;;20.57;66.75;99581.06;335580;29;1427;-79
2023/08/10 00:27:03;;;;;;;;;;;;;;;20.55;66.74;99578.53;334153;29;1862;-79
2023/08/10 00:27:13;;;;;;;;;;;;;;;20.51;66.88;99578.91;334531;29;1827;-79
2023/08/10 00:27:25;;;;;;;;;;;;;;;20.51;67.12;99576.25;336584;28;2173;-79
2023/08/10 00:27:38;;;;;;;;;;;;;;;20.53;66.88;99580.47;339568;29;943;-79
2023/08/10 00:27:48;;;;;;;;;;;;;;;20.57;67.15;99581.91;336844;29;1310;-79
2023/08/10 00:27:58;;;;;;;;;;;;;;;20.59;66.84;99574.66;336242;29;1532;-79
2023/08/10 00:28:09;;;;;;;;;;;;;;;20.63;66.69;99580.56;334190;29;902;-79
2023/08/10 00:28:19;;;;;;;;;;;;;;;20.66;66.80;99577.66;332468;29;2488;-79
2023/08/10 00:28:30;;;;;;;;;;;;;;;20.69;66.65;99579.22;330201;29;2991;-78
2023/08/10 00:28:40;;;;;;;;;;;;;;;20.72;66.74;99581.63;329559;29;2918;-78
2023/08/10 00:28:50;;;;;;;;;;;;;;;20.75;66.60;99584.88;326982;30;2902;-78
2023/08/10 00:29:00;;;;;;;;;;;;;;;20.75;66.22;99584.03;331416;29;2059;-78
2023/08/10 00:29:11;;;;;;;;;;;;;;;20.76;66.31;99585.72;332323;29;2353;-78
2023/08/10 00:29:21;;;;;;;;;;;;;;;20.76;66.52;99586.56;334301;29;1254;-78
2023/08/10 00:29:31;;;;;;;;;;;;;;;20.79;66.24;99578.31;332723;29;2420;-78
2023/08/10 00:29:42;;;;;;;;;;;;;;;20.80;66.00;99587.13;328538;29;2632;-78
2023/08/10 00:29:52;;;;;;;;;;;;;;;20.80;66.38;99590.63;328041;30;1478;-78
2023/08/10 00:30:02;;;;;;;;;;;;;;;20.80;66.42;99582.66;323030;30;2653;-78
2023/08/10 00:30:12;;;;;;;;;;;;;;;20.79;65.89;99588.97;322828;30;1819;-78
2023/08/10 00:30:23;;;;;;;;;;;;;;;20.77;65.96;99582.94;326837;30;1337;-78
2023/08/10 00:30:34;;;;;;;;;;;;;;;20.77;65.96;99588.25;326816;30;1204;-78
2023/08/10 00:30:44;;;;;;;;;;;;;;;20.78;66.25;99581.97;325563;30;2243;-78
2023/08/10 00:30:55;;;;;;;;;;;;;;;20.80;65.99;99584.47;325161;30;2398;-78
2023/08/10 00:31:05;;;;;;;;;;;;;;;20.78;66.25;99584.63;325677;30;1219;-78
2023/08/10 00:31:15;;;;;;;;;;;;;;;20.75;66.34;99574.22;325044;30;2691;-78
2023/08/10 00:31:26;;;;;;;;;;;;;;;20.74;66.10;99587.66;322169;30;3560;-78
2023/08/10 00:31:36;;;;;;;;;;;;;;;20.73;66.09;99581.50;324548;30;857;-78
2023/08/10 00:31:47;;;;;;;;;;;;;;;20.70;66.58;99581.75;320448;30;3465;-78
2023/08/10 00:31:57;;;;;;;;;;;;;;;20.70;66.60;99584.41;320294;30;3640;-78
2023/08/10 00:32:07;;;;;;;;;;;;;;;20.73;66.54;99585.97;320930;30;1261;-78
2023/08/10 00:32:19;;;;;;;;;;;;;;;20.73;66.28;99581.50;325219;30;3260;-78
2023/08/10 00:32:29;;;;;;;;;;;;;;;20.74;66.52;99583.19;323480;30;2255;-78
2023/08/10 00:32:39;;;;;;;;;;;;;;;20.75;66.35;99582.22;324230;30;1992;-78
2023/08/10 00:32:50;;;;;;;;;;;;;;;20.77;66.15;99588.25;323311;30;1333;-78
2023/08/10 00:33:00;;;;;;;;;;;;;;;20.80;66.16;99587.97;321055;30;2732;-78
2023/08/10 00:33:11;;;;;;;;;;;;;;;20.78;66.25;99584.63;318144;30;3562;-78
2023/08/10 00:33:21;;;;;;;;;;;;;;;20.80;66.38;99587.97;321042;30;849;-78
2023/08/10 00:33:32;;;;;;;;;;;;;;;20.81;66.46;99587.00;318014;30;3807;-78
2023/08/10 00:33:42;;;;;;;;;;;;;;;20.82;66.08;99586.03;314739;31;4372;-78
2023/08/10 00:33:52;;;;;;;;;;;;;;;20.82;66.06;99586.03;315302;31;779;-78
2023/08/10 00:34:03;;;;;;;;;;;;;;;20.84;65.66;99592.06;312391;31;4671;-78
2023/08/10 00:34:13;;;;;;;;;;;;;;;20.85;66.22;99588.44;312141;31;4555;-78
2023/08/10 00:34:23;;;;;;;;;;;;;;;20.87;65.71;99589.16;312237;31;4353;-78
2023/08/10 00:34:34;;;;;;;;;;;;;;;20.89;65.64;99591.69;311833;31;1350;-78
2023/08/10 00:34:44;;;;;;;;;;;;;;;20.89;65.73;99587.19;309781;31;3188;-78
2023/08/10 00:34:54;;;;;;;;;;;;;;;20.91;65.59;99589.72;309351;31;2951;-78
2023/08/10 00:35:04;;;;;;;;;;;;;;;20.91;65.95;99590.56;311681;31;1354;-78
2023/08/10 00:35:15;;;;;;;;;;;;;;;20.92;65.84;99592.25;307169;31;4118;-78
2023/08/10 00:35:25;;;;;;;;;;;;;;;20.95;65.77;99592.97;306536;32;5276;-78
2023/08/10 00:35:38;;;;;;;;;;;;;;;20.95;65.43;99593.81;305295;32;1264;-78
2023/08/10 00:35:48;;;;;;;;;;;;;;;20.96;65.68;99592.84;304164;32;1399;-78
2023/08/10 00:36:02;;;;;;;;;;;;;;;20.96;65.75;99590.19;304784;32;5804;-78
2023/08/10 00:36:13;;;;;;;;;;;;;;;20.96;65.71;99586.69;304885;32;6070;-78
2023/08/10 00:36:23;;;;;;;;;;;;;;;20.97;65.68;99593.69;303052;32;1348;-78
2023/08/10 00:36:35;;;;;;;;;;;;;;;20.97;65.42;99591.03;295131;33;835;-78
2023/08/10 00:36:45;;;;;;;;;;;;;;;20.97;65.77;99591.03;298855;32;6202;-78
2023/08/10 00:36:56;;;;;;;;;;;;;;;20.97;65.89;99596.34;296603;33;4705;-78
2023/08/10 00:37:06;;;;;;;;;;;;;;;20.97;65.71;99594.53;296093;33;775;-78
2023/08/10 00:37:16;;;;;;;;;;;;;;;20.97;65.92;99599.03;296271;33;4151;-78
2023/08/10 00:37:26;;;;;;;;;;;;;;;20.97;66.05;99597.19;292584;33;6597;-78
2023/08/10 00:37:37;;;;;;;;;;;;;;;20.98;65.62;99598.06;287901;34;4542;-78
2023/08/10 00:37:47;;;;;;;;;;;;;;;20.99;65.81;99599.75;286691;33;8447;-78
2023/08/10 00:37:57;;;;;;;;;;;;;;;20.99;65.49;99594.41;287692;33;8318;-78
2023/08/10 00:38:07;;;;;;;;;;;;;;;21.00;65.64;99599.59;291002;34;1282;-78
2023/08/10 00:38:18;;;;;;;;;;;;;;;21.01;65.62;99595.13;287851;33;8950;-78
2023/08/10 00:38:28;;;;;;;;;;;;;;;21.02;65.31;99594.16;286264;33;9774;-78
2023/08/10 00:38:39;;;;;;;;;;;;;;;21.03;65.56;99599.34;283795;34;8827;-78
2023/08/10 00:38:49;;;;;;;;;;;;;;;21.04;65.20;99605.53;286469;34;1289;-78
2023/08/10 00:40:32;;;;;;;;;;;;;;;21.14;65.42;99601.97;2502739;27;19929;-78
2023/08/10 00:40:42;;;;;;;;;;;;;;;21.16;65.37;99604.50;354449;27;1311;-78
2023/08/10 00:40:53;;;;;;;;;;;;;;;21.15;65.36;99600.13;353205;28;875;-78
2023/08/10 00:41:03;;;;;;;;;;;;;;;21.15;65.26;99603.66;351607;28;1370;-78
2023/08/10 00:41:13;;;;;;;;;;;;;;;21.17;65.36;99600.84;350260;28;859;-78
2023/08/10 00:41:24;;;;;;;;;;;;;;;21.17;65.34;99601.69;350420;28;838;-78
2023/08/10 00:41:34;;;;;;;;;;;;;;;21.17;65.25;99598.19;350393;28;875;-78
2023/08/10 00:41:44;;;;;;;;;;;;;;;21.17;65.43;99601.69;351742;28;927;-78
2023/08/10 00:41:54;;;;;;;;;;;;;;;21.16;65.09;99594.69;351756;28;1317;-78
2023/08/10 00:42:05;;;;;;;;;;;;;;;21.15;65.54;99608.97;350373;28;808;-78
2023/08/10 00:42:15;;;;;;;;;;;;;;;21.16;65.35;99599.16;347324;28;1528;-78
2023/08/10 00:42:25;;;;;;;;;;;;;;;21.15;65.07;99602.78;348023;28;1309;-78
2023/08/10 00:42:35;;;;;;;;;;;;;;;21.14;65.07;99595.78;350265;28;1365;-78
2023/08/10 00:42:45;;;;;;;;;;;;;;;21.07;65.77;99605.25;351319;28;1237;-78
2023/08/10 00:43:00;;;;;;;;;;;;;;;21.03;65.51;99603.84;351688;28;919;-78
2023/08/10 00:43:10;;;;;;;;;;;;;;;21.03;65.60;99603.84;353168;28;905;-78
2023/08/10 00:43:21;;;;;;;;;;;;;;;21.03;65.88;99598.50;351658;28;1291;-78
2023/08/10 00:43:32;;;;;;;;;;;;;;;21.04;65.89;99594.88;350408;28;851;-78
2023/08/10 00:43:42;;;;;;;;;;;;;;;21.04;65.38;99597.53;351671;28;1322;-78
2023/08/10 00:43:52;;;;;;;;;;;;;;;21.06;65.29;99598.25;350296;28;804;-78
2023/08/10 00:44:03;;;;;;;;;;;;;;;21.07;65.61;99594.63;351657;28;1207;-78
2023/08/10 00:44:16;;;;;;;;;;;;;;;21.08;65.59;99596.31;350129;28;1164;-78
2023/08/10 00:44:26;;;;;;;;;;;;;;;21.10;65.44;99600.53;348814;28;1126;-78
2023/08/10 00:44:36;;;;;;;;;;;;;;;21.10;65.10;99595.19;347673;28;863;-78
2023/08/10 00:44:46;;;;;;;;;;;;;;;21.13;65.23;99594.94;348953;28;1216;-78
2023/08/10 00:44:57;;;;;;;;;;;;;;;21.13;64.99;99600.25;350997;28;1253;-78
2023/08/10 00:45:07;;;;;;;;;;;;;;;21.14;65.26;99596.63;348930;28;1087;-78
2023/08/10 00:45:18;;;;;;;;;;;;;;;21.15;65.14;99595.66;348902;28;876;-78
2023/08/10 00:45:28;;;;;;;;;;;;;;;21.16;65.27;99599.16;347579;28;1219;-78
2023/08/10 00:45:39;;;;;;;;;;;;;;;21.17;65.07;99600.84;346204;28;824;-78
2023/08/10 00:45:49;;;;;;;;;;;;;;;21.17;65.01;99596.38;346198;28;1122;-78
2023/08/10 00:45:59;;;;;;;;;;;;;;;21.18;65.21;99599.88;348935;28;1318;-78
2023/08/10 00:46:10;;;;;;;;;;;;;;;21.18;64.73;99599.88;345735;28;1305;-78
2023/08/10 00:46:20;;;;;;;;;;;;;;;21.19;65.14;99598.91;344903;28;805;-78
2023/08/10 00:46:30;;;;;;;;;;;;;;;21.19;65.11;99604.22;347201;28;1199;-78
2023/08/10 00:46:41;;;;;;;;;;;;;;;21.19;64.58;99598.91;346577;28;2202;-78
2023/08/10 00:46:51;;;;;;;;;;;;;;;21.19;65.07;99596.25;346680;28;2337;-78
2023/08/10 00:47:01;;;;;;;;;;;;;;;21.20;65.21;99603.25;342197;28;2633;-78
2023/08/10 00:47:11;;;;;;;;;;;;;;;21.21;64.58;99602.31;344039;28;2918;-78
2023/08/10 00:47:22;;;;;;;;;;;;;;;21.20;64.54;99604.09;343422;28;1219;-78
2023/08/10 00:47:32;;;;;;;;;;;;;;;21.21;65.07;99595.19;344889;28;1018;-77
2023/08/10 00:47:42;;;;;;;;;;;;;;;21.22;64.66;99593.34;344810;28;1296;-77
2023/08/10 00:47:52;;;;;;;;;;;;;;;21.23;64.98;99600.34;341759;28;1235;-77
2023/08/10 00:48:03;;;;;;;;;;;;;;;21.22;64.84;99599.53;340784;29;826;-77
2023/08/10 00:48:13;;;;;;;;;;;;;;;21.24;64.97;99599.34;342388;28;921;-78
2023/08/10 00:48:23;;;;;;;;;;;;;;;21.23;64.56;99595.84;343232;28;1327;-78
2023/08/10 00:48:33;;;;;;;;;;;;;;;21.25;65.16;99601.03;343466;28;1213;-78
2023/08/10 00:48:43;;;;;;;;;;;;;;;21.24;64.89;99596.69;340676;28;1508;-78
2023/08/10 00:48:54;;;;;;;;;;;;;;;21.24;64.79;99599.34;341344;28;1212;-78
2023/08/10 00:49:04;;;;;;;;;;;;;;;21.23;65.07;99597.69;340865;29;1215;-78
2023/08/10 00:49:14;;;;;;;;;;;;;;;21.23;64.58;99603.00;342396;28;1545;-78
2023/08/10 00:49:25;;;;;;;;;;;;;;;21.22;65.14;99596.00;343707;28;1384;-78
2023/08/10 00:49:35;;;;;;;;;;;;;;;21.21;65.14;99597.00;346169;28;1103;-78
2023/08/10 00:49:45;;;;;;;;;;;;;;;21.21;65.04;99597.00;343409;28;1233;-78
2023/08/10 00:49:56;;;;;;;;;;;;;;;21.21;64.82;99597.00;342203;28;873;-78
2023/08/10 00:50:06;;;;;;;;;;;;;;;21.20;65.08;99600.59;342246;28;809;-78
2023/08/10 00:50:16;;;;;;;;;;;;;;;21.20;65.19;99596.13;340136;29;794;-78
2023/08/10 00:50:27;;;;;;;;;;;;;;;21.21;64.62;99599.66;339838;29;1499;-78
2023/08/10 00:50:37;;;;;;;;;;;;;;;21.21;65.08;99597.00;337956;29;1733;-78
2023/08/10 00:50:50;;;;;;;;;;;;;;;21.21;65.01;99597.00;334382;29;1301;-78
2023/08/10 00:51:00;;;;;;;;;;;;;;;21.22;64.98;99588.03;336310;29;1490;-78
2023/08/10 00:51:10;;;;;;;;;;;;;;;21.22;64.70;99598.69;337705;29;2078;-78
2023/08/10 00:51:20;;;;;;;;;;;;;;;21.23;64.59;99595.00;335441;29;1263;-78
2023/08/10 00:51:30;;;;;;;;;;;;;;;21.23;65.08;99589.69;332924;29;2103;-78
2023/08/10 00:51:41;;;;;;;;;;;;;;;21.23;64.74;99590.53;335301;29;1547;-78
2023/08/10 00:51:51;;;;;;;;;;;;;;;21.24;64.92;99596.69;333052;29;1258;-78
2023/08/10 00:52:01;;;;;;;;;;;;;;;21.22;64.76;99593.34;334175;29;1381;-78
2023/08/10 00:52:11;;;;;;;;;;;;;;;21.21;65.22;99594.31;334128;29;1046;-78
2023/08/10 00:52:22;;;;;;;;;;;;;;;21.19;65.09;99596.25;335161;29;1709;-78
2023/08/10 00:52:33;;;;;;;;;;;;;;;21.19;64.90;99593.59;334572;29;1247;-78
2023/08/10 00:52:44;;;;;;;;;;;;;;;21.19;64.98;99594.44;335380;29;2070;-78
2023/08/10 00:52:54;;;;;;;;;;;;;;;21.19;65.17;99593.59;334040;29;2346;-78
2023/08/10 00:53:04;;;;;;;;;;;;;;;21.20;64.77;99589.94;333183;29;826;-78
2023/08/10 00:53:15;;;;;;;;;;;;;;;21.21;64.80;99597.00;338038;29;2363;-78
2023/08/10 00:53:26;;;;;;;;;;;;;;;21.20;64.82;99596.13;332140;29;2640;-78
2023/08/10 00:53:36;;;;;;;;;;;;;;;21.21;64.97;99586.34;329490;29;938;-78
2023/08/10 00:53:46;;;;;;;;;;;;;;;21.22;65.06;99593.34;329041;30;2569;-78
2023/08/10 00:53:56;;;;;;;;;;;;;;;21.22;64.88;99591.53;326110;30;1805;-78
2023/08/10 00:54:06;;;;;;;;;;;;;;;21.23;65.09;99590.53;325433;30;1316;-78
2023/08/10 00:54:17;;;;;;;;;;;;;;;21.24;64.61;99586.06;324390;30;1494;-78
2023/08/10 00:54:27;;;;;;;;;;;;;;;21.25;64.74;99582.41;322120;30;1803;-78
2023/08/10 00:54:37;;;;;;;;;;;;;;;21.25;64.54;99582.41;321412;30;2201;-78
2023/08/10 00:54:47;;;;;;;;;;;;;;;21.26;64.59;99586.75;322043;30;1211;-78
2023/08/10 00:54:58;;;;;;;;;;;;;;;21.28;64.94;99583.97;321426;30;2976;-78
2023/08/10 00:55:08;;;;;;;;;;;;;;;21.28;64.93;99586.63;321223;30;3278;-78
2023/08/10 00:55:18;;;;;;;;;;;;;;;21.29;64.89;99580.34;319750;30;1250;-78
2023/08/10 00:55:28;;;;;;;;;;;;;;;21.29;64.79;99586.50;315176;31;3257;-78
2023/08/10 00:55:39;;;;;;;;;;;;;;;21.30;64.69;99585.53;314797;30;3334;-78
2023/08/10 00:55:51;;;;;;;;;;;;;;;21.31;64.83;99576.56;318644;31;1503;-78
2023/08/10 00:56:01;;;;;;;;;;;;;;;21.31;64.36;99576.56;318336;30;3389;-78
2023/08/10 00:56:11;;;;;;;;;;;;;;;21.31;64.78;99579.22;312418;31;3711;-78
2023/08/10 00:56:21;;;;;;;;;;;;;;;21.32;64.36;99574.75;311672;31;2863;-78
2023/08/10 00:56:32;;;;;;;;;;;;;;;21.33;64.54;99579.09;312974;31;1017;-77
2023/08/10 00:56:42;;;;;;;;;;;;;;;21.32;64.91;99575.59;312556;31;3022;-78
2023/08/10 00:56:52;;;;;;;;;;;;;;;21.31;64.57;99576.56;314317;31;3843;-78
2023/08/10 00:57:03;;;;;;;;;;;;;;;21.32;64.91;99577.41;312935;31;1247;-78
2023/08/10 00:57:13;;;;;;;;;;;;;;;21.31;65.00;99579.22;308921;31;5115;-78
2023/08/10 00:57:23;;;;;;;;;;;;;;;21.27;64.87;99580.47;305649;31;4621;-78
2023/08/10 00:57:33;;;;;;;;;;;;;;;21.25;64.81;99572.59;306369;32;761;-78
2023/08/10 00:57:44;;;;;;;;;;;;;;;21.23;64.97;99574.56;306171;32;4506;-78
2023/08/10 00:57:54;;;;;;;;;;;;;;;21.23;65.22;99573.72;307082;31;4273;-78
2023/08/10 00:58:04;;;;;;;;;;;;;;;21.23;64.88;99576.38;307374;32;1288;-78
2023/08/10 00:58:14;;;;;;;;;;;;;;;21.18;65.27;99565.28;306653;32;4596;-78
2023/08/10 00:58:25;;;;;;;;;;;;;;;21.10;65.12;99570.41;304463;32;3667;-78
2023/08/10 00:58:36;;;;;;;;;;;;;;;21.10;65.24;99568.59;302222;32;1294;-78
2023/08/10 00:58:47;;;;;;;;;;;;;;;21.06;65.19;99564.50;297247;33;806;-78
2023/08/10 00:58:57;;;;;;;;;;;;;;;21.08;65.29;99564.38;297584;32;4230;-78
2023/08/10 00:59:08;;;;;;;;;;;;;;;21.06;65.54;99561.84;297030;32;6036;-78
2023/08/10 00:59:18;;;;;;;;;;;;;;;21.06;65.23;99567.16;299109;33;1977;-78
2023/08/10 00:59:28;;;;;;;;;;;;;;;21.04;65.15;99557.63;299915;32;6590;-78